createdAt,value
2017-08-31T00:01:43.280Z,77.30
2017-08-31T00:04:11.003Z,77.80
2017-08-31T00:06:38.887Z,78.20
2017-08-31T00:09:06.662Z,78.70
2017-08-31T00:11:34.389Z,78.80
2017-08-31T00:14:02.148Z,78.90
2017-08-31T00:16:29.903Z,78.60
2017-08-31T00:18:57.686Z,78.90
2017-08-31T00:21:25.411Z,78.90
2017-08-31T00:23:53.152Z,78.60
2017-08-31T00:26:20.912Z,78.80
2017-08-31T00:28:49.516Z,78.90
2017-08-31T00:31:17.316Z,78.60
2017-08-31T00:33:45.041Z,78.50
2017-08-31T00:36:12.817Z,78.90
2017-08-31T00:38:40.566Z,79.10
2017-08-31T00:41:08.291Z,79.00
2017-08-31T00:43:36.077Z,78.80
2017-08-31T00:46:03.812Z,79.70
2017-08-31T00:48:31.548Z,80.20
2017-08-31T00:50:59.363Z,80.70
2017-08-31T00:53:27.097Z,81.20
2017-08-31T00:55:54.905Z,81.60
2017-08-31T00:58:22.667Z,82.10
2017-08-31T01:00:50.407Z,82.40
2017-08-31T01:03:18.160Z,83.00
2017-08-31T01:05:45.881Z,82.80
2017-08-31T01:08:13.680Z,83.10
2017-08-31T01:10:41.416Z,82.80
2017-08-31T01:13:09.156Z,83.10
2017-08-31T01:15:36.909Z,83.30
2017-08-31T01:18:04.639Z,83.20
2017-08-31T01:20:32.436Z,83.40
2017-08-31T01:23:00.190Z,83.90
2017-08-31T01:25:27.935Z,84.30
2017-08-31T01:27:55.725Z,84.60
2017-08-31T01:30:23.482Z,85.10
2017-08-31T01:32:51.297Z,85.60
2017-08-31T01:35:19.097Z,86.00
2017-08-31T01:37:46.840Z,86.60
2017-08-31T01:40:14.609Z,87.40
2017-08-31T01:42:42.359Z,88.30
2017-08-31T01:45:10.535Z,88.10
2017-08-31T01:47:46.176Z,88.30
2017-08-31T01:50:13.975Z,88.40
2017-08-31T01:52:41.712Z,88.60
2017-08-31T01:55:09.486Z,88.90
2017-08-31T01:57:37.256Z,88.80
2017-08-31T02:00:05.023Z,89.00
2017-08-31T02:02:32.802Z,89.40
2017-08-31T02:05:00.533Z,89.70
2017-08-31T02:07:28.265Z,89.60
2017-08-31T02:09:56.023Z,89.30
2017-08-31T02:12:23.748Z,90.00
2017-08-31T02:14:51.531Z,90.00
2017-08-31T02:17:19.285Z,90.10
2017-08-31T02:19:47.012Z,90.10
2017-08-31T02:22:14.787Z,90.40
2017-08-31T02:24:42.539Z,90.50
2017-08-31T02:27:10.324Z,90.40
2017-08-31T02:29:38.096Z,90.10
2017-08-31T02:32:05.834Z,90.40
2017-08-31T02:34:33.597Z,90.50
2017-08-31T02:37:01.332Z,90.50
2017-08-31T02:39:29.124Z,90.30
2017-08-31T02:41:56.851Z,90.10
2017-08-31T02:44:24.572Z,90.00
2017-08-31T02:46:52.347Z,90.00
2017-08-31T02:49:20.072Z,90.00
2017-08-31T02:51:47.852Z,90.20
2017-08-31T02:54:15.583Z,90.20
2017-08-31T02:56:43.305Z,90.40
2017-08-31T02:59:11.062Z,90.50
2017-08-31T03:01:38.780Z,90.20
2017-08-31T03:04:06.561Z,90.40
2017-08-31T03:06:34.287Z,90.40
2017-08-31T03:09:02.008Z,90.60
2017-08-31T03:11:29.754Z,90.70
2017-08-31T03:13:57.479Z,90.90
2017-08-31T03:16:25.267Z,90.90
2017-08-31T03:18:52.997Z,90.90
2017-08-31T03:21:20.772Z,90.60
2017-08-31T03:23:48.525Z,90.60
2017-08-31T03:26:16.265Z,90.70
2017-08-31T03:28:44.057Z,90.60
2017-08-31T03:31:11.788Z,90.40
2017-08-31T03:33:39.516Z,90.30
2017-08-31T03:36:07.282Z,90.00
2017-08-31T03:38:35.012Z,89.70
2017-08-31T03:41:02.803Z,90.00
2017-08-31T03:43:30.540Z,89.10
2017-08-31T03:45:58.270Z,89.30
2017-08-31T03:48:26.028Z,88.70
2017-08-31T03:50:53.752Z,89.60
2017-08-31T03:53:21.576Z,88.70
2017-08-31T03:55:49.300Z,88.80
2017-08-31T03:58:17.024Z,88.10
2017-08-31T04:00:44.776Z,87.30
2017-08-31T04:03:12.504Z,87.10
2017-08-31T04:05:40.292Z,87.00
2017-08-31T04:08:08.019Z,87.10
2017-08-31T04:10:35.752Z,87.10
2017-08-31T04:13:03.511Z,86.00
2017-08-31T04:15:31.234Z,85.40
2017-08-31T04:17:59.013Z,85.00
2017-08-31T04:20:26.736Z,84.70
2017-08-31T04:22:54.464Z,84.20
2017-08-31T04:25:22.233Z,83.30
2017-08-31T04:27:49.971Z,83.20
2017-08-31T04:30:17.756Z,82.60
2017-08-31T04:32:45.490Z,82.70
2017-08-31T04:35:13.218Z,81.70
2017-08-31T04:37:40.972Z,81.10
2017-08-31T04:40:08.701Z,80.60
2017-08-31T04:42:36.491Z,80.40
2017-08-31T04:45:04.223Z,77.50
2017-08-31T04:47:31.944Z,76.90
2017-08-31T04:49:59.700Z,74.40
2017-08-31T04:52:27.433Z,73.70
2017-08-31T04:54:55.228Z,73.30
2017-08-31T04:57:22.957Z,69.80
2017-08-31T04:59:50.680Z,69.70
2017-08-31T05:02:18.438Z,65.00
2017-08-31T05:04:46.171Z,62.20
2017-08-31T05:07:13.956Z,61.50
2017-08-31T05:09:41.687Z,61.20
2017-08-31T05:12:09.417Z,57.70
2017-08-31T05:14:37.180Z,55.20
2017-08-31T05:17:04.908Z,53.20
2017-08-31T05:19:32.712Z,52.30
2017-08-31T05:22:00.448Z,50.30
2017-08-31T05:24:28.208Z,49.70
2017-08-31T05:26:55.996Z,47.70
2017-08-31T05:29:23.728Z,46.20
2017-08-31T05:31:51.521Z,46.20
2017-08-31T05:34:19.248Z,43.90
2017-08-31T05:36:46.979Z,40.10
2017-08-31T05:39:14.734Z,38.80
2017-08-31T05:41:42.616Z,35.40
2017-08-31T05:44:10.395Z,33.80
2017-08-31T05:46:38.132Z,31.60
2017-08-31T05:49:05.865Z,29.90
2017-08-31T05:51:33.623Z,28.70
2017-08-31T05:54:01.357Z,26.30
2017-08-31T05:56:29.164Z,24.90
2017-08-31T05:58:56.920Z,24.40
2017-08-31T06:01:24.668Z,23.50
2017-08-31T06:03:52.444Z,23.00
2017-08-31T06:06:20.183Z,23.10
2017-08-31T06:08:47.975Z,22.10
2017-08-31T06:11:15.720Z,21.40
2017-08-31T06:13:43.451Z,21.50
2017-08-31T06:16:11.210Z,22.30
2017-08-31T06:18:38.942Z,22.60
2017-08-31T06:21:06.756Z,22.30
2017-08-31T06:23:34.483Z,22.00
2017-08-31T06:26:02.229Z,21.60
2017-08-31T06:28:30.008Z,20.70
2017-08-31T06:30:57.757Z,20.20
2017-08-31T06:33:25.548Z,21.60
2017-08-31T06:35:53.291Z,22.10
2017-08-31T06:38:21.036Z,21.20
2017-08-31T06:40:48.799Z,22.00
2017-08-31T06:43:16.531Z,21.60
2017-08-31T06:45:44.316Z,20.60
2017-08-31T06:48:12.049Z,19.20
2017-08-31T06:50:39.779Z,18.70
2017-08-31T06:53:07.535Z,18.30
2017-08-31T06:55:35.268Z,18.40
2017-08-31T06:58:03.051Z,18.30
2017-08-31T07:00:30.782Z,18.10
2017-08-31T07:02:58.555Z,19.50
2017-08-31T07:05:26.322Z,20.20
2017-08-31T07:07:54.052Z,19.80
2017-08-31T07:10:21.803Z,20.20
2017-08-31T07:12:49.531Z,20.30
2017-08-31T07:15:17.325Z,20.20
2017-08-31T07:17:45.061Z,18.70
2017-08-31T07:20:12.793Z,19.40
2017-08-31T07:22:40.552Z,18.90
2017-08-31T07:25:08.276Z,18.80
2017-08-31T07:27:36.065Z,18.00
2017-08-31T07:30:03.821Z,18.10
2017-08-31T07:32:31.559Z,17.20
2017-08-31T07:34:59.319Z,15.80
2017-08-31T07:37:27.045Z,14.60
2017-08-31T07:39:54.827Z,14.60
2017-08-31T07:42:22.552Z,14.40
2017-08-31T07:44:50.277Z,14.20
2017-08-31T07:47:18.086Z,14.10
2017-08-31T07:49:45.815Z,12.70
2017-08-31T07:52:13.603Z,12.00
2017-08-31T07:54:41.338Z,11.60
2017-08-31T07:57:09.083Z,10.30
2017-08-31T07:59:36.831Z,10.60
2017-08-31T08:02:04.572Z,10.50
2017-08-31T08:04:32.347Z,9.90
2017-08-31T08:07:00.079Z,10.80
2017-08-31T08:09:27.832Z,10.70
2017-08-31T08:11:55.584Z,10.40
2017-08-31T08:14:23.308Z,10.20
2017-08-31T08:16:51.083Z,10.10
2017-08-31T08:19:18.808Z,8.90
2017-08-31T08:21:46.555Z,9.20
2017-08-31T08:24:14.306Z,9.10
2017-08-31T08:26:42.024Z,8.80
2017-08-31T08:29:09.811Z,8.40
2017-08-31T08:31:37.536Z,8.50
2017-08-31T08:34:05.272Z,8.30
2017-08-31T08:36:33.024Z,7.80
2017-08-31T08:39:00.740Z,8.20
2017-08-31T08:41:28.520Z,8.10
2017-08-31T08:43:56.248Z,7.90
2017-08-31T08:46:24.008Z,7.30
2017-08-31T08:48:51.762Z,7.60
2017-08-31T08:51:19.492Z,7.70
2017-08-31T08:53:47.271Z,7.70
2017-08-31T08:56:15.016Z,8.20
2017-08-31T08:58:42.739Z,8.00
2017-08-31T09:01:10.548Z,7.80
2017-08-31T09:03:38.308Z,8.00
2017-08-31T09:06:06.089Z,7.90
2017-08-31T09:08:33.806Z,7.00
2017-08-31T09:11:01.552Z,8.10
2017-08-31T09:13:29.307Z,7.30
2017-08-31T09:15:57.022Z,8.00
2017-08-31T09:18:24.831Z,8.20
2017-08-31T09:20:52.613Z,9.80
2017-08-31T09:23:20.344Z,11.70
2017-08-31T09:25:48.099Z,13.20
2017-08-31T09:28:15.858Z,14.40
2017-08-31T09:30:43.647Z,15.10
2017-08-31T09:33:11.384Z,15.80
2017-08-31T09:35:39.110Z,16.20
2017-08-31T09:38:06.872Z,15.90
2017-08-31T09:40:34.608Z,15.30
2017-08-31T09:43:02.391Z,16.00
2017-08-31T09:45:30.123Z,16.50
2017-08-31T09:47:57.856Z,17.00
2017-08-31T09:50:25.669Z,18.70
2017-08-31T09:52:53.400Z,19.20
2017-08-31T09:55:21.187Z,19.80
2017-08-31T09:57:48.917Z,19.30
2017-08-31T10:00:16.653Z,19.50
2017-08-31T10:02:44.415Z,19.50
2017-08-31T10:05:12.185Z,19.40
2017-08-31T10:07:39.980Z,19.50
2017-08-31T10:10:07.709Z,19.00
2017-08-31T10:12:35.448Z,19.10
2017-08-31T10:15:03.219Z,19.40
2017-08-31T10:17:30.968Z,19.80
2017-08-31T10:19:58.746Z,20.10
2017-08-31T10:22:26.471Z,19.50
2017-08-31T10:24:54.201Z,18.30
2017-08-31T10:27:22.021Z,18.10
2017-08-31T10:29:49.748Z,18.40
2017-08-31T10:32:17.553Z,19.00
2017-08-31T10:34:45.282Z,19.60
2017-08-31T10:37:13.016Z,18.90
2017-08-31T10:39:40.779Z,19.40
2017-08-31T10:42:08.508Z,19.50
2017-08-31T10:44:36.299Z,19.70
2017-08-31T10:47:04.030Z,20.00
2017-08-31T10:49:31.767Z,19.60
2017-08-31T10:51:59.519Z,20.00
2017-08-31T10:54:27.281Z,21.10
2017-08-31T10:56:55.232Z,20.60
2017-08-31T10:59:22.963Z,20.10
2017-08-31T11:01:50.701Z,21.30
2017-08-31T11:04:18.464Z,21.20
2017-08-31T11:06:46.217Z,21.10
2017-08-31T11:09:14.012Z,20.40
2017-08-31T11:11:41.752Z,21.50
2017-08-31T11:14:09.480Z,20.80
2017-08-31T11:16:37.244Z,20.70
2017-08-31T11:19:04.987Z,20.80
2017-08-31T11:21:32.768Z,20.80
2017-08-31T11:24:00.507Z,21.80
2017-08-31T11:26:28.283Z,21.10
2017-08-31T11:28:56.119Z,20.90
2017-08-31T11:31:23.846Z,20.90
2017-08-31T11:33:51.743Z,21.00
2017-08-31T11:36:19.429Z,20.80
2017-08-31T11:38:47.203Z,20.40
2017-08-31T11:41:14.967Z,21.00
2017-08-31T11:43:42.690Z,21.00
2017-08-31T11:46:10.477Z,20.80
2017-08-31T11:48:38.204Z,20.50
2017-08-31T11:51:05.927Z,20.50
2017-08-31T11:53:33.683Z,20.10
2017-08-31T11:56:01.424Z,19.60
2017-08-31T11:58:29.241Z,19.40
2017-08-31T12:00:56.983Z,19.70
2017-08-31T12:03:24.715Z,19.20
2017-08-31T12:05:52.471Z,19.40
2017-08-31T12:08:20.200Z,20.20
2017-08-31T12:10:47.960Z,20.00
2017-08-31T12:13:15.693Z,19.90
2017-08-31T12:15:43.482Z,19.80
2017-08-31T12:18:11.209Z,19.40
2017-08-31T12:20:38.936Z,19.30
2017-08-31T12:23:06.707Z,19.50
2017-08-31T12:25:34.463Z,19.40
2017-08-31T12:28:02.248Z,19.30
2017-08-31T12:30:29.979Z,19.30
2017-08-31T12:32:57.708Z,19.40
2017-08-31T12:35:25.464Z,19.40
2017-08-31T12:37:53.235Z,19.50
2017-08-31T12:40:21.020Z,19.10
2017-08-31T12:42:48.752Z,18.40
2017-08-31T12:45:16.504Z,18.20
2017-08-31T12:47:44.263Z,17.40
2017-08-31T12:50:11.995Z,16.50
2017-08-31T12:52:39.804Z,17.00
2017-08-31T12:55:07.531Z,17.20
2017-08-31T12:57:35.258Z,17.30
2017-08-31T13:00:03.019Z,17.80
2017-08-31T13:02:30.776Z,17.40
2017-08-31T13:04:58.565Z,18.20
2017-08-31T13:07:26.292Z,17.90
2017-08-31T13:09:54.024Z,17.60
2017-08-31T13:12:21.802Z,18.30
2017-08-31T13:14:49.533Z,19.30
2017-08-31T13:17:17.347Z,19.30
2017-08-31T13:19:45.080Z,19.30
2017-08-31T13:22:12.803Z,19.30
2017-08-31T13:24:40.571Z,19.40
2017-08-31T13:27:08.301Z,18.30
2017-08-31T13:29:36.373Z,19.40
2017-08-31T13:32:04.108Z,18.00
2017-08-31T13:34:31.839Z,17.90
2017-08-31T13:36:59.591Z,17.90
2017-08-31T13:39:27.321Z,17.90
2017-08-31T13:41:55.103Z,18.00
2017-08-31T13:44:22.828Z,18.30
2017-08-31T13:46:50.610Z,18.70
2017-08-31T13:49:18.376Z,17.60
2017-08-31T13:51:46.104Z,17.90
2017-08-31T13:54:13.899Z,17.50
2017-08-31T13:56:41.628Z,18.10
2017-08-31T13:59:09.356Z,17.60
2017-08-31T14:01:37.117Z,16.70
2017-08-31T14:04:04.852Z,16.90
2017-08-31T14:06:32.677Z,16.60
2017-08-31T14:09:00.404Z,17.00
2017-08-31T14:11:28.148Z,17.70
2017-08-31T14:13:55.913Z,17.20
2017-08-31T14:16:23.644Z,17.90
2017-08-31T14:18:51.432Z,17.30
2017-08-31T14:21:19.165Z,18.20
2017-08-31T14:23:46.895Z,18.50
2017-08-31T14:26:14.664Z,17.80
2017-08-31T14:28:42.396Z,18.50
2017-08-31T14:31:10.188Z,18.30
2017-08-31T14:33:37.933Z,18.40
2017-08-31T14:36:05.670Z,18.40
2017-08-31T14:38:33.423Z,18.80
2017-08-31T14:41:01.153Z,18.80
2017-08-31T14:43:28.941Z,19.00
2017-08-31T14:45:56.673Z,19.30
2017-08-31T14:48:24.406Z,20.50
2017-08-31T14:50:52.163Z,21.20
2017-08-31T14:53:19.905Z,21.80
2017-08-31T14:55:47.693Z,22.60
2017-08-31T14:58:15.424Z,23.20
2017-08-31T15:00:43.156Z,23.60
2017-08-31T15:03:10.929Z,24.00
2017-08-31T15:05:38.669Z,25.40
2017-08-31T15:08:06.457Z,26.50
2017-08-31T15:10:34.194Z,27.60
2017-08-31T15:13:01.928Z,28.20
2017-08-31T15:15:29.687Z,28.90
2017-08-31T15:17:57.420Z,29.40
2017-08-31T15:20:25.213Z,29.70
2017-08-31T15:22:52.959Z,29.90
2017-08-31T15:25:20.683Z,30.00
2017-08-31T15:27:48.435Z,30.60
2017-08-31T15:30:16.158Z,30.40
2017-08-31T15:32:43.940Z,30.80
2017-08-31T15:35:11.668Z,31.30
2017-08-31T15:37:39.397Z,32.10
2017-08-31T15:40:07.164Z,32.80
2017-08-31T15:42:34.899Z,32.80
2017-08-31T15:45:02.684Z,33.30
2017-08-31T15:47:30.410Z,34.00
2017-08-31T15:49:58.135Z,34.40
2017-08-31T15:52:25.896Z,34.70
2017-08-31T15:54:53.633Z,34.80
2017-08-31T15:57:21.419Z,35.00
2017-08-31T15:59:49.144Z,35.40
2017-08-31T16:02:16.868Z,36.00
2017-08-31T16:04:44.640Z,36.00
2017-08-31T16:07:12.383Z,35.80
2017-08-31T16:09:40.168Z,36.30
2017-08-31T16:12:07.897Z,36.10
2017-08-31T16:14:35.632Z,36.20
2017-08-31T16:17:03.412Z,36.30
2017-08-31T16:19:31.134Z,36.90
2017-08-31T16:21:58.937Z,36.90
2017-08-31T16:24:26.660Z,37.10
2017-08-31T16:26:54.392Z,37.60
2017-08-31T16:29:22.164Z,38.00
2017-08-31T16:31:49.886Z,38.30
2017-08-31T16:34:17.668Z,38.40
2017-08-31T16:36:45.388Z,38.80
2017-08-31T16:39:13.115Z,39.10
2017-08-31T16:41:40.879Z,39.50
2017-08-31T16:44:08.607Z,39.60
2017-08-31T16:46:36.887Z,39.90
2017-08-31T16:49:04.615Z,40.10
2017-08-31T16:51:32.387Z,40.70
2017-08-31T16:54:00.157Z,40.90
2017-08-31T16:56:27.895Z,40.90
2017-08-31T16:58:55.675Z,41.70
2017-08-31T17:01:23.411Z,41.90
2017-08-31T17:03:51.135Z,42.30
2017-08-31T17:06:18.899Z,42.90
2017-08-31T17:08:46.622Z,43.00
2017-08-31T17:11:14.502Z,43.60
2017-08-31T17:13:42.251Z,44.50
2017-08-31T17:16:09.984Z,45.00
2017-08-31T17:18:37.758Z,45.40
2017-08-31T17:21:05.480Z,46.20
2017-08-31T17:23:33.295Z,46.80
2017-08-31T17:26:01.024Z,47.50
2017-08-31T17:28:28.799Z,48.10
2017-08-31T17:30:56.556Z,49.10
2017-08-31T17:33:24.283Z,49.10
2017-08-31T17:35:53.388Z,49.70
2017-08-31T17:38:21.270Z,50.40
2017-08-31T17:40:49.007Z,51.10
2017-08-31T17:43:16.765Z,51.50
2017-08-31T17:45:44.492Z,51.70
2017-08-31T17:48:12.283Z,51.90
2017-08-31T17:50:40.015Z,52.50
2017-08-31T17:53:07.744Z,53.50
2017-08-31T17:55:35.514Z,53.40
2017-08-31T17:58:03.239Z,54.00
2017-08-31T18:00:31.022Z,54.40
2017-08-31T18:02:58.776Z,55.80
2017-08-31T18:05:26.523Z,57.00
2017-08-31T18:07:54.282Z,57.10
2017-08-31T18:10:22.008Z,58.30
2017-08-31T18:12:49.808Z,59.60
2017-08-31T18:15:17.536Z,61.20
2017-08-31T18:17:45.263Z,62.70
2017-08-31T18:20:13.032Z,63.30
2017-08-31T18:22:40.759Z,63.50
2017-08-31T18:25:08.547Z,63.70
2017-08-31T18:27:36.271Z,64.60
2017-08-31T18:30:04.019Z,63.80
2017-08-31T18:32:31.782Z,63.00
2017-08-31T18:34:59.517Z,62.10
2017-08-31T18:37:27.301Z,61.70
2017-08-31T18:39:55.027Z,61.80
2017-08-31T18:42:22.753Z,62.40
2017-08-31T18:44:50.511Z,62.40
2017-08-31T18:47:18.248Z,63.10
2017-08-31T18:49:46.095Z,63.60
2017-08-31T18:52:13.832Z,64.70
2017-08-31T18:54:41.564Z,65.20
2017-08-31T18:57:09.337Z,65.20
2017-08-31T18:59:37.075Z,66.70
2017-08-31T19:02:04.871Z,67.70
2017-08-31T19:04:32.599Z,67.50
2017-08-31T19:07:00.328Z,68.10
2017-08-31T19:09:28.103Z,68.40
2017-08-31T19:11:55.832Z,67.90
2017-08-31T19:14:23.615Z,68.50
2017-08-31T19:16:51.343Z,69.40
2017-08-31T19:19:19.068Z,69.90
2017-08-31T19:21:46.827Z,70.40
2017-08-31T19:24:14.560Z,71.20
2017-08-31T19:26:43.020Z,71.60
2017-08-31T19:29:10.755Z,71.90
2017-08-31T19:31:38.485Z,72.70
2017-08-31T19:34:06.236Z,73.30
2017-08-31T19:36:33.967Z,72.80
2017-08-31T19:39:01.747Z,73.40
2017-08-31T19:41:29.553Z,73.80
2017-08-31T19:43:57.318Z,75.00
2017-08-31T19:46:25.173Z,76.20
2017-08-31T19:48:52.903Z,77.40
2017-08-31T19:51:20.736Z,78.80
2017-08-31T19:53:48.463Z,81.30
2017-08-31T19:56:16.191Z,83.70
2017-08-31T19:58:43.953Z,84.10
2017-08-31T20:01:11.679Z,86.00
2017-08-31T20:03:39.630Z,87.00
2017-08-31T20:06:07.361Z,88.10
2017-08-31T20:08:35.092Z,87.70
2017-08-31T20:11:02.853Z,88.40
2017-08-31T20:13:30.725Z,88.40
2017-08-31T20:15:58.720Z,89.50
2017-08-31T20:18:26.472Z,89.70
2017-08-31T20:20:54.214Z,90.30
2017-08-31T20:23:21.984Z,90.50
2017-08-31T20:25:49.718Z,91.10
2017-08-31T20:28:17.498Z,91.20
2017-08-31T20:30:45.243Z,91.40
2017-08-31T20:33:13.028Z,92.20
2017-08-31T20:35:40.792Z,92.70
2017-08-31T20:38:08.519Z,93.00
2017-08-31T20:40:36.357Z,93.50
2017-08-31T20:43:04.124Z,93.80
2017-08-31T20:45:31.904Z,94.30
2017-08-31T20:47:59.724Z,94.80
2017-08-31T20:50:27.476Z,95.10
2017-08-31T20:52:55.259Z,95.30
2017-08-31T20:55:23.000Z,95.60
2017-08-31T20:57:50.735Z,95.80
2017-08-31T21:00:18.498Z,95.90
2017-08-31T21:02:46.228Z,96.40
2017-08-31T21:05:14.017Z,96.20
2017-08-31T21:07:41.740Z,96.10
2017-08-31T21:10:09.472Z,96.30
2017-08-31T21:12:37.289Z,96.70
2017-08-31T21:15:05.015Z,96.80
2017-08-31T21:17:32.802Z,97.20
2017-08-31T21:20:00.540Z,97.00
2017-08-31T21:22:28.268Z,96.00
2017-08-31T21:24:56.024Z,94.20
2017-08-31T21:27:23.751Z,93.80
2017-08-31T21:29:51.536Z,93.00
2017-08-31T21:32:19.261Z,92.30
2017-08-31T21:34:46.999Z,92.10
2017-08-31T21:37:14.760Z,92.10
2017-08-31T21:39:42.483Z,92.60
2017-08-31T21:42:10.273Z,93.40
2017-08-31T21:44:38.048Z,93.70
2017-08-31T21:47:05.774Z,93.90
2017-08-31T21:49:33.532Z,94.30
2017-08-31T21:52:01.263Z,95.00
2017-08-31T21:54:29.082Z,95.50
2017-08-31T21:56:56.809Z,95.60
2017-08-31T21:59:24.536Z,95.80
2017-08-31T22:01:52.292Z,95.70
2017-08-31T22:04:20.020Z,95.70
2017-08-31T22:06:47.799Z,95.90
2017-08-31T22:09:15.528Z,96.10
2017-08-31T22:11:43.247Z,96.20
2017-08-31T22:14:11.005Z,96.20
2017-08-31T22:16:38.788Z,96.20
2017-08-31T22:19:06.571Z,96.40
2017-08-31T22:21:34.295Z,96.20
2017-08-31T22:24:02.031Z,96.30
2017-08-31T22:26:29.787Z,95.80
2017-08-31T22:28:57.521Z,95.50
2017-08-31T22:31:25.317Z,95.20
2017-08-31T22:33:53.043Z,94.60
2017-08-31T22:36:20.768Z,94.80
2017-08-31T22:38:48.540Z,94.80
2017-08-31T22:41:16.269Z,94.90
2017-08-31T22:43:44.055Z,94.90
2017-08-31T22:46:11.785Z,94.90
2017-08-31T22:48:39.508Z,95.10
2017-08-31T22:51:07.261Z,95.30
2017-08-31T22:53:34.984Z,96.40
2017-08-31T22:56:02.776Z,96.90
2017-08-31T22:58:42.290Z,97.40
2017-08-31T23:01:10.076Z,97.80
2017-08-31T23:03:37.856Z,98.20
2017-08-31T23:06:05.587Z,98.10
2017-08-31T23:08:33.352Z,98.40
2017-08-31T23:11:01.087Z,98.20
2017-08-31T23:13:28.893Z,98.30
2017-08-31T23:15:56.621Z,98.30
2017-08-31T23:18:24.351Z,98.30
2017-08-31T23:20:52.104Z,98.30
2017-08-31T23:23:19.831Z,98.40
2017-08-31T23:25:47.661Z,98.30
2017-08-31T23:28:15.384Z,98.40
2017-08-31T23:30:43.108Z,98.40
2017-08-31T23:33:10.880Z,98.40
2017-08-31T23:35:38.609Z,98.40
2017-08-31T23:38:06.398Z,98.40
2017-08-31T23:40:34.123Z,98.60
2017-08-31T23:43:01.856Z,98.80
2017-08-31T23:45:29.607Z,99.10
2017-08-31T23:47:57.331Z,99.20
2017-08-31T23:50:25.123Z,99.20
2017-08-31T23:52:52.843Z,99.40
2017-08-31T23:55:20.578Z,99.40
2017-08-31T23:57:48.331Z,99.50
